createdAt,value
2018-07-26T00:01:16.024Z,4.30
2018-07-26T00:03:43.519Z,4.03
2018-07-26T00:06:11.547Z,4.20
2018-07-26T00:08:39.121Z,4.40
2018-07-26T00:11:06.679Z,4.30
2018-07-26T00:13:34.676Z,3.80
2018-07-26T00:16:02.251Z,4.17
2018-07-26T00:18:29.806Z,4.47
2018-07-26T00:20:57.916Z,4.27
2018-07-26T00:23:25.518Z,4.20
2018-07-26T00:25:53.095Z,4.57
2018-07-26T00:28:21.148Z,4.17
2018-07-26T00:30:48.638Z,4.20
2018-07-26T00:33:16.247Z,4.33
2018-07-26T00:35:44.051Z,4.37
2018-07-26T00:38:11.566Z,4.43
2018-07-26T00:40:39.115Z,4.43
2018-07-26T00:43:07.195Z,4.40
2018-07-26T00:45:34.825Z,4.90
2018-07-26T00:48:02.406Z,4.60
2018-07-26T00:50:30.502Z,4.63
2018-07-26T00:52:58.104Z,4.60
2018-07-26T00:55:25.685Z,5.40
2018-07-26T00:57:54.051Z,4.17
2018-07-26T01:00:21.620Z,4.60
2018-07-26T01:02:49.244Z,4.83
2018-07-26T01:05:17.302Z,4.80
2018-07-26T01:07:44.843Z,4.73
2018-07-26T01:10:12.438Z,4.80
2018-07-26T01:12:40.573Z,4.73
2018-07-26T01:15:08.144Z,4.70
2018-07-26T01:17:35.754Z,4.80
2018-07-26T01:20:04.116Z,4.73
2018-07-26T01:22:31.723Z,4.30
2018-07-26T01:24:59.290Z,4.57
2018-07-26T01:27:27.357Z,4.73
2018-07-26T01:29:55.061Z,4.80
2018-07-26T01:32:22.596Z,4.80
2018-07-26T01:34:50.417Z,4.83
2018-07-26T01:37:18.049Z,4.53
2018-07-26T01:39:45.628Z,4.47
2018-07-26T01:42:13.451Z,4.60
2018-07-26T01:44:40.978Z,4.70
2018-07-26T01:47:08.493Z,4.73
2018-07-26T01:49:36.442Z,4.57
2018-07-26T01:52:04.002Z,4.67
2018-07-26T01:54:31.545Z,4.93
2018-07-26T01:56:59.321Z,4.80
2018-07-26T01:59:27.193Z,4.53
2018-07-26T02:01:54.805Z,5.50
2018-07-26T02:04:22.661Z,4.73
2018-07-26T02:06:50.199Z,5.17
2018-07-26T02:09:17.824Z,5.07
2018-07-26T02:11:45.798Z,4.80
2018-07-26T02:14:19.015Z,4.60
2018-07-26T02:16:46.988Z,5.33
2018-07-26T02:19:14.533Z,5.27
2018-07-26T02:21:42.127Z,5.23
2018-07-26T02:24:10.019Z,4.80
2018-07-26T02:26:37.653Z,5.03
2018-07-26T02:29:05.235Z,5.53
2018-07-26T02:31:33.229Z,5.17
2018-07-26T02:34:00.884Z,5.10
2018-07-26T02:36:28.460Z,4.97
2018-07-26T02:38:56.381Z,5.07
2018-07-26T02:41:23.963Z,5.17
2018-07-26T02:43:51.499Z,5.07
2018-07-26T02:46:19.399Z,4.93
2018-07-26T02:48:46.962Z,5.73
2018-07-26T02:51:14.525Z,5.33
2018-07-26T02:53:42.383Z,4.80
2018-07-26T02:56:09.996Z,5.50
2018-07-26T02:58:37.655Z,4.97
2018-07-26T03:01:05.915Z,5.53
2018-07-26T03:03:33.453Z,5.20
2018-07-26T03:06:00.974Z,5.20
2018-07-26T03:08:28.808Z,5.33
2018-07-26T03:10:56.392Z,4.80
2018-07-26T03:13:23.979Z,5.47
2018-07-26T03:15:52.057Z,4.67
2018-07-26T03:18:19.754Z,5.10
2018-07-26T03:21:18.261Z,5.20
2018-07-26T03:23:46.076Z,5.10
2018-07-26T03:26:13.636Z,4.93
2018-07-26T03:28:41.457Z,4.87
2018-07-26T03:31:09.688Z,5.10
2018-07-26T03:33:37.254Z,4.90
2018-07-26T03:36:05.051Z,5.13
2018-07-26T03:38:32.898Z,5.13
2018-07-26T03:41:00.439Z,5.33
2018-07-26T03:43:28.124Z,4.77
2018-07-26T03:45:55.927Z,5.17
2018-07-26T03:48:23.499Z,5.47
2018-07-26T03:50:51.303Z,5.30
2018-07-26T03:53:19.029Z,5.00
2018-07-26T03:55:46.508Z,5.30
2018-07-26T03:58:14.307Z,4.93
2018-07-26T04:00:42.139Z,5.27
2018-07-26T04:03:09.985Z,5.17
2018-07-26T04:05:37.835Z,4.90
2018-07-26T04:08:05.747Z,5.20
2018-07-26T04:10:33.326Z,5.30
2018-07-26T04:13:00.997Z,4.97
2018-07-26T04:15:28.687Z,4.90
2018-07-26T04:20:35.538Z,4.70
2018-07-26T04:23:03.178Z,4.27
2018-07-26T04:25:31.363Z,5.10
2018-07-26T04:27:59.282Z,4.80
2018-07-26T04:30:26.844Z,4.90
2018-07-26T04:32:54.461Z,4.40
2018-07-26T04:35:22.273Z,4.77
2018-07-26T04:37:49.838Z,4.70
2018-07-26T04:40:17.418Z,4.40
2018-07-26T04:42:45.309Z,4.40
2018-07-26T04:45:12.875Z,4.17
2018-07-26T04:47:40.412Z,4.27
2018-07-26T04:50:08.411Z,4.40
2018-07-26T04:52:35.961Z,4.00
2018-07-26T04:55:03.646Z,3.53
2018-07-26T04:57:31.345Z,3.70
2018-07-26T04:59:59.061Z,3.70
2018-07-26T05:02:26.716Z,3.53
2018-07-26T05:04:54.877Z,3.80
2018-07-26T05:07:22.476Z,3.50
2018-07-26T05:09:50.053Z,3.67
2018-07-26T05:12:17.974Z,3.60
2018-07-26T05:14:45.486Z,3.60
2018-07-26T05:17:13.081Z,3.60
2018-07-26T05:19:40.905Z,3.50
2018-07-26T05:22:08.464Z,3.20
2018-07-26T05:24:35.994Z,3.40
2018-07-26T05:27:04.244Z,3.27
2018-07-26T05:29:31.767Z,3.23
2018-07-26T05:31:59.338Z,3.40
2018-07-26T05:34:27.385Z,3.40
2018-07-26T05:36:54.973Z,3.37
2018-07-26T05:39:22.564Z,3.00
2018-07-26T05:41:50.474Z,3.23
2018-07-26T05:44:17.994Z,3.40
2018-07-26T05:46:45.690Z,3.20
2018-07-26T05:49:13.579Z,3.17
2018-07-26T05:51:41.192Z,3.30
2018-07-26T05:54:08.796Z,2.80
2018-07-26T05:56:43.343Z,2.70
2018-07-26T05:59:10.899Z,2.73
2018-07-26T06:01:38.576Z,2.73
2018-07-26T06:04:06.507Z,2.43
2018-07-26T06:06:34.308Z,2.50
2018-07-26T06:09:01.912Z,2.73
2018-07-26T06:11:29.888Z,2.57
2018-07-26T06:13:57.457Z,2.73
2018-07-26T06:16:25.022Z,2.20
2018-07-26T06:18:52.916Z,2.37
2018-07-26T06:21:20.533Z,2.20
2018-07-26T06:23:48.129Z,2.30
2018-07-26T06:26:15.961Z,2.40
2018-07-26T06:28:43.515Z,2.40
2018-07-26T06:31:11.108Z,2.40
2018-07-26T06:33:39.161Z,2.00
2018-07-26T06:36:06.674Z,2.00
2018-07-26T06:38:34.258Z,1.87
2018-07-26T06:41:02.309Z,2.10
2018-07-26T06:43:29.957Z,2.40
2018-07-26T06:45:57.559Z,2.10
2018-07-26T06:48:25.641Z,2.30
2018-07-26T06:50:53.217Z,2.30
2018-07-26T06:53:20.783Z,2.33
2018-07-26T06:55:48.488Z,1.90
2018-07-26T06:58:16.098Z,2.20
2018-07-26T07:00:43.689Z,2.27
2018-07-26T07:03:26.354Z,2.23
2018-07-26T07:05:53.965Z,2.23
2018-07-26T07:08:21.872Z,2.27
2018-07-26T07:10:49.604Z,2.40
2018-07-26T07:13:17.189Z,2.60
2018-07-26T07:15:44.927Z,2.00
2018-07-26T07:18:12.607Z,2.20
2018-07-26T07:20:40.250Z,2.20
2018-07-26T07:23:14.902Z,2.30
2018-07-26T07:25:42.431Z,2.40
2018-07-26T07:28:10.172Z,2.40
2018-07-26T07:30:37.895Z,2.40
2018-07-26T07:33:05.467Z,2.50
2018-07-26T07:35:33.330Z,2.30
2018-07-26T07:38:01.008Z,2.20
2018-07-26T07:40:28.608Z,1.97
2018-07-26T07:42:56.266Z,2.00
2018-07-26T07:45:23.969Z,2.13
2018-07-26T07:47:51.508Z,2.13
2018-07-26T07:50:19.272Z,2.10
2018-07-26T07:52:46.937Z,2.30
2018-07-26T07:55:14.494Z,1.97
2018-07-26T07:57:42.127Z,1.73
2018-07-26T08:00:09.897Z,1.93
2018-07-26T08:02:37.625Z,2.03
2018-07-26T08:05:05.505Z,2.00
2018-07-26T08:07:33.263Z,1.97
2018-07-26T08:10:01.031Z,2.07
2018-07-26T08:12:28.878Z,1.83
2018-07-26T08:14:56.646Z,1.90
2018-07-26T08:17:24.200Z,1.50
2018-07-26T08:19:52.021Z,1.97
2018-07-26T08:22:19.669Z,1.90
2018-07-26T08:24:47.277Z,2.07
2018-07-26T08:27:15.015Z,1.73
2018-07-26T08:29:42.637Z,2.00
2018-07-26T08:32:10.240Z,1.80
2018-07-26T08:34:37.970Z,2.00
2018-07-26T08:37:05.719Z,2.00
2018-07-26T08:39:33.318Z,2.00
2018-07-26T08:42:01.067Z,2.10
2018-07-26T08:44:28.688Z,1.70
2018-07-26T08:46:56.387Z,1.87
2018-07-26T08:49:24.040Z,1.97
2018-07-26T08:51:51.921Z,1.93
2018-07-26T08:54:19.455Z,2.30
2018-07-26T08:56:47.285Z,1.80
2018-07-26T08:59:14.993Z,1.87
2018-07-26T09:01:42.540Z,1.73
2018-07-26T09:04:10.062Z,1.80
2018-07-26T09:06:37.829Z,1.90
2018-07-26T09:09:08.028Z,2.20
2018-07-26T09:11:35.817Z,1.90
2018-07-26T09:14:03.672Z,2.10
2018-07-26T09:16:31.204Z,2.00
2018-07-26T09:18:58.770Z,1.90
2018-07-26T09:21:26.601Z,2.10
2018-07-26T09:23:54.162Z,1.67
2018-07-26T09:26:21.781Z,1.90
2018-07-26T09:28:49.595Z,2.10
2018-07-26T09:31:17.285Z,2.00
2018-07-26T09:33:44.898Z,2.30
2018-07-26T09:36:12.599Z,2.00
2018-07-26T09:38:40.226Z,2.33
2018-07-26T09:41:07.831Z,2.03
2018-07-26T09:43:35.535Z,2.30
2018-07-26T09:46:03.149Z,2.40
2018-07-26T09:48:30.671Z,2.00
2018-07-26T09:50:58.501Z,1.97
2018-07-26T09:53:26.105Z,2.10
2018-07-26T09:55:53.729Z,2.33
2018-07-26T09:58:21.368Z,2.57
2018-07-26T10:00:54.585Z,2.10
2018-07-26T10:03:22.114Z,2.50
2018-07-26T10:05:49.762Z,2.47
2018-07-26T10:08:17.314Z,2.47
2018-07-26T10:10:44.860Z,2.30
2018-07-26T10:13:12.779Z,1.77
2018-07-26T10:15:40.323Z,2.50
2018-07-26T10:18:07.950Z,2.63
2018-07-26T10:20:35.685Z,2.00
2018-07-26T10:23:03.226Z,2.20
2018-07-26T10:25:30.744Z,2.40
2018-07-26T10:27:58.484Z,2.33
2018-07-26T10:30:26.082Z,2.30
2018-07-26T10:32:53.656Z,1.90
2018-07-26T10:35:21.357Z,2.57
2018-07-26T10:37:48.963Z,2.27
2018-07-26T10:40:16.465Z,2.70
2018-07-26T10:42:44.251Z,2.10
2018-07-26T10:45:11.807Z,2.10
2018-07-26T10:47:39.397Z,2.30
2018-07-26T10:50:08.286Z,2.00
2018-07-26T10:52:35.824Z,2.00
2018-07-26T10:55:03.475Z,1.73
2018-07-26T10:57:31.354Z,1.80
2018-07-26T10:59:58.870Z,1.60
2018-07-26T11:02:26.493Z,1.93
2018-07-26T11:04:54.209Z,1.47
2018-07-26T11:07:21.775Z,1.90
2018-07-26T11:09:49.412Z,1.70
2018-07-26T11:12:17.125Z,1.40
2018-07-26T11:14:44.765Z,1.67
2018-07-26T11:17:12.303Z,1.50
2018-07-26T11:19:40.039Z,1.43
2018-07-26T11:22:07.679Z,1.40
2018-07-26T11:24:35.308Z,1.63
2018-07-26T11:27:02.960Z,1.33
2018-07-26T11:29:37.164Z,1.30
2018-07-26T11:32:04.880Z,1.43
2018-07-26T11:34:32.480Z,1.60
2018-07-26T11:37:00.057Z,1.63
2018-07-26T11:39:27.758Z,1.50
2018-07-26T11:41:55.400Z,1.77
2018-07-26T11:44:22.934Z,1.40
2018-07-26T11:46:50.811Z,1.50
2018-07-26T11:49:18.481Z,1.50
2018-07-26T11:51:46.054Z,1.60
2018-07-26T11:54:13.887Z,1.30
2018-07-26T11:56:41.554Z,1.40
2018-07-26T11:59:09.196Z,1.30
2018-07-26T12:01:37.065Z,1.10
2018-07-26T12:04:04.698Z,1.20
2018-07-26T12:06:32.406Z,1.30
2018-07-26T12:09:00.090Z,1.40
2018-07-26T12:11:27.714Z,1.10
2018-07-26T12:13:55.308Z,1.23
2018-07-26T12:16:23.152Z,1.20
2018-07-26T12:18:50.691Z,1.20
2018-07-26T12:21:18.274Z,1.20
2018-07-26T12:23:45.999Z,1.20
2018-07-26T12:26:13.625Z,1.20
2018-07-26T12:28:41.265Z,1.20
2018-07-26T12:31:09.200Z,1.20
2018-07-26T12:33:36.772Z,1.30
2018-07-26T12:36:04.408Z,1.07
2018-07-26T12:38:32.210Z,1.00
2018-07-26T12:40:59.793Z,0.93
2018-07-26T12:43:27.455Z,1.20
2018-07-26T12:45:55.458Z,1.13
2018-07-26T12:48:23.041Z,1.10
2018-07-26T12:50:50.633Z,0.90
2018-07-26T12:53:18.539Z,1.33
2018-07-26T12:55:46.220Z,0.80
2018-07-26T12:58:13.816Z,0.93
2018-07-26T13:00:41.658Z,0.80
2018-07-26T13:03:09.237Z,0.73
2018-07-26T13:05:37.101Z,0.80
2018-07-26T13:08:05.075Z,0.80
2018-07-26T13:10:32.696Z,0.87
2018-07-26T13:13:00.351Z,0.70
2018-07-26T13:15:28.200Z,1.03
2018-07-26T13:17:55.915Z,0.80
2018-07-26T13:20:23.531Z,0.87
2018-07-26T13:22:51.355Z,0.77
2018-07-26T13:25:18.955Z,0.90
2018-07-26T13:27:46.557Z,0.90
2018-07-26T13:30:14.326Z,0.90
2018-07-26T13:32:41.901Z,0.70
2018-07-26T13:35:09.492Z,0.90
2018-07-26T13:37:37.364Z,1.00
2018-07-26T13:40:05.028Z,0.80
2018-07-26T13:42:32.701Z,1.00
2018-07-26T13:45:00.442Z,0.70
2018-07-26T13:47:28.092Z,0.90
2018-07-26T13:49:55.711Z,0.80
2018-07-26T13:52:23.528Z,0.60
2018-07-26T13:54:51.196Z,0.87
2018-07-26T13:57:18.940Z,0.90
2018-07-26T13:59:46.684Z,0.80
2018-07-26T14:02:14.299Z,0.87
2018-07-26T14:04:41.991Z,0.77
2018-07-26T14:07:09.790Z,1.17
2018-07-26T14:09:37.443Z,0.90
2018-07-26T14:12:05.055Z,0.77
2018-07-26T14:14:32.847Z,0.97
2018-07-26T14:17:00.532Z,0.60
2018-07-26T14:19:28.203Z,0.77
2018-07-26T14:21:55.889Z,0.80
2018-07-26T14:24:24.564Z,0.70
2018-07-26T14:26:52.995Z,0.83
2018-07-26T14:29:20.802Z,0.80
2018-07-26T14:31:48.446Z,0.70
2018-07-26T14:34:16.050Z,0.70
2018-07-26T14:36:44.286Z,0.80
2018-07-26T14:39:12.227Z,0.80
2018-07-26T14:41:40.192Z,0.70
2018-07-26T14:44:08.284Z,0.90
2018-07-26T14:46:36.186Z,1.00
2018-07-26T14:49:03.973Z,1.40
2018-07-26T14:51:31.775Z,1.00
2018-07-26T14:53:59.355Z,1.10
2018-07-26T14:56:28.140Z,1.10
2018-07-26T14:58:55.885Z,1.10
2018-07-26T15:01:23.503Z,1.07
2018-07-26T15:03:51.173Z,1.30
2018-07-26T15:06:19.286Z,1.37
2018-07-26T15:08:46.870Z,1.07
2018-07-26T15:11:14.469Z,1.23
2018-07-26T15:13:42.194Z,1.27
2018-07-26T15:16:09.825Z,1.10
2018-07-26T15:18:37.431Z,1.30
2018-07-26T15:21:05.539Z,1.13
2018-07-26T15:23:33.172Z,1.13
2018-07-26T15:26:00.762Z,1.10
2018-07-26T15:28:28.467Z,1.03
2018-07-26T15:30:56.133Z,1.00
2018-07-26T15:33:23.732Z,1.00
2018-07-26T15:35:51.534Z,1.17
2018-07-26T15:38:19.175Z,1.23
2018-07-26T15:40:46.851Z,1.00
2018-07-26T15:43:14.646Z,0.73
2018-07-26T15:45:42.209Z,0.80
2018-07-26T15:48:09.838Z,0.90
2018-07-26T15:50:37.768Z,0.80
2018-07-26T15:53:05.432Z,0.83
2018-07-26T15:55:33.068Z,0.90
2018-07-26T15:58:00.718Z,0.97
2018-07-26T16:00:28.342Z,0.80
2018-07-26T16:02:56.047Z,0.80
2018-07-26T16:05:23.821Z,1.13
2018-07-26T16:07:51.505Z,1.00
2018-07-26T16:10:19.116Z,0.83
2018-07-26T16:12:46.870Z,0.80
2018-07-26T16:15:14.516Z,0.80
2018-07-26T16:17:42.147Z,1.00
2018-07-26T16:20:10.681Z,1.00
2018-07-26T16:22:38.442Z,1.30
2018-07-26T16:25:07.544Z,1.10
2018-07-26T16:27:35.345Z,1.03
2018-07-26T16:30:03.609Z,1.00
2018-07-26T16:32:31.260Z,1.00
2018-07-26T16:34:59.036Z,1.00
2018-07-26T16:37:26.636Z,0.93
2018-07-26T16:39:54.222Z,0.87
2018-07-26T16:42:22.125Z,1.20
2018-07-26T16:44:49.700Z,1.00
2018-07-26T16:47:17.296Z,0.90
2018-07-26T16:49:45.088Z,0.80
2018-07-26T16:52:12.693Z,0.60
2018-07-26T16:54:40.262Z,0.60
2018-07-26T16:57:08.412Z,0.80
2018-07-26T16:59:36.006Z,0.70
2018-07-26T17:02:03.735Z,0.50
2018-07-26T17:04:31.595Z,0.67
2018-07-26T17:06:59.374Z,0.80
2018-07-26T17:09:27.301Z,0.50
2018-07-26T17:11:55.057Z,0.70
2018-07-26T17:14:22.604Z,0.70
2018-07-26T17:16:50.285Z,0.80
2018-07-26T17:19:18.044Z,0.83
2018-07-26T17:21:46.421Z,0.70
2018-07-26T17:24:14.017Z,0.70
2018-07-26T17:26:41.812Z,0.70
2018-07-26T17:29:10.210Z,0.80
2018-07-26T17:31:37.952Z,0.80
2018-07-26T17:34:05.717Z,0.80
2018-07-26T17:36:33.321Z,0.80
2018-07-26T17:39:01.001Z,0.80
2018-07-26T17:41:28.754Z,0.90
2018-07-26T17:43:56.370Z,0.80
2018-07-26T17:46:23.997Z,0.87
2018-07-26T17:48:52.019Z,0.90
2018-07-26T17:51:19.773Z,0.97
2018-07-26T17:53:47.413Z,1.67
2018-07-26T17:56:15.043Z,0.83
2018-07-26T17:58:42.653Z,0.90
2018-07-26T18:01:10.380Z,0.80
2018-07-26T18:03:38.159Z,0.90
2018-07-26T18:06:05.843Z,0.87
2018-07-26T18:08:33.458Z,0.80
2018-07-26T18:11:01.229Z,0.90
2018-07-26T18:13:28.842Z,1.00
2018-07-26T18:15:56.532Z,0.83
2018-07-26T18:18:24.221Z,0.80
2018-07-26T18:20:51.824Z,0.80
2018-07-26T18:23:19.497Z,0.90
2018-07-26T18:25:47.241Z,1.00
2018-07-26T18:28:14.881Z,0.93
2018-07-26T18:30:42.453Z,0.97
2018-07-26T18:33:10.211Z,0.83
2018-07-26T18:35:37.919Z,0.60
2018-07-26T18:38:05.731Z,0.83
2018-07-26T18:40:33.577Z,0.80
2018-07-26T18:43:01.144Z,0.77
2018-07-26T18:45:28.753Z,0.80
2018-07-26T18:47:56.699Z,0.90
2018-07-26T18:50:24.287Z,0.73
2018-07-26T18:52:51.959Z,0.90
2018-07-26T18:55:19.940Z,1.10
2018-07-26T18:57:47.609Z,1.00
2018-07-26T19:00:46.124Z,0.90
2018-07-26T19:03:13.748Z,0.93
2018-07-26T19:05:41.389Z,1.00
2018-07-26T19:08:09.156Z,1.00
2018-07-26T19:10:36.820Z,1.00
2018-07-26T19:13:04.558Z,1.00
2018-07-26T19:15:32.420Z,1.00
2018-07-26T19:18:00.127Z,1.03
2018-07-26T19:20:27.873Z,1.10
2018-07-26T19:22:55.652Z,1.20
2018-07-26T19:25:23.649Z,0.90
2018-07-26T19:27:51.373Z,1.03
2018-07-26T19:30:19.248Z,1.10
2018-07-26T19:32:46.956Z,0.90
2018-07-26T19:35:14.590Z,1.13
2018-07-26T19:37:42.262Z,0.90
2018-07-26T19:40:11.235Z,1.10
2018-07-26T19:42:39.310Z,1.10
2018-07-26T19:45:07.723Z,1.10
2018-07-26T19:47:35.511Z,0.90
2018-07-26T19:50:03.255Z,1.17
2018-07-26T19:52:30.969Z,1.10
2018-07-26T19:54:58.574Z,1.10
2018-07-26T19:57:26.180Z,1.00
2018-07-26T19:59:54.008Z,1.20
2018-07-26T20:02:21.676Z,1.00
2018-07-26T20:04:49.259Z,1.23
2018-07-26T20:07:17.092Z,1.20
2018-07-26T20:09:44.697Z,1.40
2018-07-26T20:14:41.315Z,1.10
2018-07-26T20:17:09.003Z,1.30
2018-07-26T20:19:36.636Z,1.30
2018-07-26T20:22:04.441Z,1.10
2018-07-26T20:24:32.132Z,1.30
2018-07-26T20:26:59.871Z,1.40
2018-07-26T20:29:27.650Z,1.10
2018-07-26T20:31:55.258Z,1.03
2018-07-26T20:34:22.881Z,1.33
2018-07-26T20:36:50.675Z,1.00
2018-07-26T20:39:18.701Z,1.10
2018-07-26T20:41:46.314Z,1.20
2018-07-26T20:44:14.107Z,1.03
2018-07-26T20:46:41.921Z,1.20
2018-07-26T20:49:09.584Z,1.20
2018-07-26T20:51:37.369Z,1.10
2018-07-26T20:54:05.085Z,1.10
2018-07-26T20:56:32.768Z,1.20
2018-07-26T20:59:00.554Z,1.10
2018-07-26T21:01:28.255Z,1.30
2018-07-26T21:03:55.953Z,1.03
2018-07-26T21:06:23.669Z,1.20
2018-07-26T21:08:51.314Z,1.00
2018-07-26T21:11:18.933Z,1.10
2018-07-26T21:13:46.801Z,1.27
2018-07-26T21:16:14.470Z,1.20
2018-07-26T21:18:42.058Z,1.00
2018-07-26T21:21:09.879Z,1.27
2018-07-26T21:23:37.444Z,1.30
2018-07-26T21:26:05.064Z,1.20
2018-07-26T21:28:33.012Z,1.00
2018-07-26T21:31:00.584Z,1.10
2018-07-26T21:33:28.169Z,1.07
2018-07-26T21:35:56.081Z,1.20
2018-07-26T21:38:23.632Z,0.90
2018-07-26T21:40:51.245Z,1.00
2018-07-26T21:43:19.007Z,1.20
2018-07-26T21:45:46.904Z,1.13
2018-07-26T21:48:14.537Z,1.13
2018-07-26T21:50:42.357Z,1.13
2018-07-26T21:53:10.029Z,1.20
2018-07-26T21:55:37.622Z,1.10
2018-07-26T21:58:05.349Z,1.20
2018-07-26T22:00:42.059Z,1.20
2018-07-26T22:03:09.851Z,1.30
2018-07-26T22:05:37.708Z,1.23
2018-07-26T22:08:05.375Z,1.07
2018-07-26T22:10:33.096Z,1.53
2018-07-26T22:13:00.903Z,1.10
2018-07-26T22:15:28.550Z,1.10
2018-07-26T22:17:56.228Z,1.40
2018-07-26T22:20:23.909Z,1.20
2018-07-26T22:22:51.589Z,1.10
2018-07-26T22:25:19.320Z,1.20
2018-07-26T22:27:47.053Z,1.10
2018-07-26T22:30:14.883Z,1.13
2018-07-26T22:32:42.722Z,1.27
2018-07-26T22:35:10.427Z,1.30
2018-07-26T22:37:38.197Z,1.10
2018-07-26T22:40:06.123Z,1.23
2018-07-26T22:54:31.603Z,1.20
2018-07-26T22:56:59.205Z,1.20
2018-07-26T22:59:26.844Z,1.20
2018-07-26T23:01:54.728Z,1.40
2018-07-26T23:04:22.327Z,1.30
2018-07-26T23:06:49.887Z,1.40
2018-07-26T23:09:17.610Z,1.20
2018-07-26T23:11:45.217Z,1.07
2018-07-26T23:14:12.836Z,1.23
2018-07-26T23:16:40.660Z,1.30
2018-07-26T23:19:08.291Z,1.23
2018-07-26T23:21:35.959Z,1.47
2018-07-26T23:24:04.049Z,1.30
2018-07-26T23:26:31.731Z,1.17
2018-07-26T23:28:59.346Z,1.37
2018-07-26T23:31:27.284Z,1.20
2018-07-26T23:33:55.103Z,1.27
2018-07-26T23:36:22.722Z,1.20
2018-07-26T23:38:50.498Z,1.40
2018-07-26T23:41:18.227Z,1.30
2018-07-26T23:43:45.775Z,1.20
2018-07-26T23:46:13.570Z,1.10
2018-07-26T23:48:41.219Z,1.30
2018-07-26T23:51:08.810Z,1.20
2018-07-26T23:53:36.654Z,1.50
2018-07-26T23:56:04.290Z,1.10
2018-07-26T23:58:31.884Z,1.40
